sensor_id;sensor_type;location;lat;lon;timestamp;P1;durP1;ratioP1;P2;durP2;ratioP2
13493;SDS011;6819;50.886;4.332;2023-03-01T00:01:49;8.38;;;5.93;;
13493;SDS011;6819;50.886;4.332;2023-03-01T00:04:15;9.75;;;5.88;;
13493;SDS011;6819;50.886;4.332;2023-03-01T00:06:42;11.60;;;5.38;;
13493;SDS011;6819;50.886;4.332;2023-03-01T00:09:11;8.63;;;5.57;;
13493;SDS011;6819;50.886;4.332;2023-03-01T00:11:37;10.30;;;5.82;;
13493;SDS011;6819;50.886;4.332;2023-03-01T00:14:04;8.25;;;5.57;;
13493;SDS011;6819;50.886;4.332;2023-03-01T00:16:32;9.70;;;5.72;;
13493;SDS011;6819;50.886;4.332;2023-03-01T00:18:58;7.55;;;5.60;;
13493;SDS011;6819;50.886;4.332;2023-03-01T00:21:24;10.60;;;5.50;;
13493;SDS011;6819;50.886;4.332;2023-03-01T00:23:51;11.25;;;5.55;;
13493;SDS011;6819;50.886;4.332;2023-03-01T00:26:18;10.70;;;5.45;;
13493;SDS011;6819;50.886;4.332;2023-03-01T00:28:44;10.82;;;5.70;;
13493;SDS011;6819;50.886;4.332;2023-03-01T00:31:12;9.40;;;5.57;;
13493;SDS011;6819;50.886;4.332;2023-03-01T00:33:38;10.27;;;5.93;;
13493;SDS011;6819;50.886;4.332;2023-03-01T00:36:05;11.05;;;5.13;;
13493;SDS011;6819;50.886;4.332;2023-03-01T00:38:35;8.85;;;5.43;;
13493;SDS011;6819;50.886;4.332;2023-03-01T00:41:08;8.20;;;5.38;;
13493;SDS011;6819;50.886;4.332;2023-03-01T00:43:34;8.27;;;5.18;;
13493;SDS011;6819;50.886;4.332;2023-03-01T00:46:11;7.10;;;4.78;;
13493;SDS011;6819;50.886;4.332;2023-03-01T00:48:38;10.35;;;5.03;;
13493;SDS011;6819;50.886;4.332;2023-03-01T00:51:14;10.40;;;5.97;;
13493;SDS011;6819;50.886;4.332;2023-03-01T00:53:41;9.68;;;5.90;;
13493;SDS011;6819;50.886;4.332;2023-03-01T00:56:08;7.88;;;4.88;;
13493;SDS011;6819;50.886;4.332;2023-03-01T00:58:34;15.50;;;5.07;;
13493;SDS011;6819;50.886;4.332;2023-03-01T01:01:00;8.27;;;4.65;;
13493;SDS011;6819;50.886;4.332;2023-03-01T01:03:26;8.45;;;4.90;;
13493;SDS011;6819;50.886;4.332;2023-03-01T01:05:53;8.82;;;6.15;;
13493;SDS011;6819;50.886;4.332;2023-03-01T01:08:19;7.50;;;5.03;;
13493;SDS011;6819;50.886;4.332;2023-03-01T01:10:46;12.00;;;5.30;;
13493;SDS011;6819;50.886;4.332;2023-03-01T01:13:12;7.97;;;4.95;;
13493;SDS011;6819;50.886;4.332;2023-03-01T01:15:39;8.35;;;5.38;;
13493;SDS011;6819;50.886;4.332;2023-03-01T01:18:05;11.02;;;5.20;;
13493;SDS011;6819;50.886;4.332;2023-03-01T01:20:31;9.05;;;5.22;;
13493;SDS011;6819;50.886;4.332;2023-03-01T01:22:57;11.55;;;4.88;;
13493;SDS011;6819;50.886;4.332;2023-03-01T01:25:23;6.85;;;5.00;;
13493;SDS011;6819;50.886;4.332;2023-03-01T01:27:52;7.97;;;4.80;;
13493;SDS011;6819;50.886;4.332;2023-03-01T01:30:18;10.30;;;5.40;;
13493;SDS011;6819;50.886;4.332;2023-03-01T01:32:44;8.50;;;4.57;;
13493;SDS011;6819;50.886;4.332;2023-03-01T01:35:10;7.47;;;4.70;;
13493;SDS011;6819;50.886;4.332;2023-03-01T01:37:36;9.13;;;5.40;;
13493;SDS011;6819;50.886;4.332;2023-03-01T01:40:02;8.10;;;4.78;;
13493;SDS011;6819;50.886;4.332;2023-03-01T01:42:29;6.93;;;4.57;;
13493;SDS011;6819;50.886;4.332;2023-03-01T01:47:40;12.53;;;4.90;;
13493;SDS011;6819;50.886;4.332;2023-03-01T01:50:08;8.77;;;4.72;;
13493;SDS011;6819;50.886;4.332;2023-03-01T01:52:40;10.05;;;4.72;;
13493;SDS011;6819;50.886;4.332;2023-03-01T01:55:10;12.23;;;5.28;;
13493;SDS011;6819;50.886;4.332;2023-03-01T01:57:41;6.88;;;4.60;;
13493;SDS011;6819;50.886;4.332;2023-03-01T02:00:12;11.90;;;5.85;;
13493;SDS011;6819;50.886;4.332;2023-03-01T02:02:38;7.82;;;4.75;;
13493;SDS011;6819;50.886;4.332;2023-03-01T02:05:09;9.20;;;5.15;;
13493;SDS011;6819;50.886;4.332;2023-03-01T02:07:37;8.18;;;4.45;;
13493;SDS011;6819;50.886;4.332;2023-03-01T02:10:05;10.63;;;5.05;;
13493;SDS011;6819;50.886;4.332;2023-03-01T02:12:31;7.60;;;4.40;;
13493;SDS011;6819;50.886;4.332;2023-03-01T02:14:58;8.48;;;5.10;;
13493;SDS011;6819;50.886;4.332;2023-03-01T02:17:24;10.35;;;5.40;;
13493;SDS011;6819;50.886;4.332;2023-03-01T02:22:24;10.73;;;5.10;;
13493;SDS011;6819;50.886;4.332;2023-03-01T02:24:57;11.05;;;4.85;;
13493;SDS011;6819;50.886;4.332;2023-03-01T02:27:26;10.23;;;5.45;;
13493;SDS011;6819;50.886;4.332;2023-03-01T02:29:54;11.93;;;5.43;;
13493;SDS011;6819;50.886;4.332;2023-03-01T02:32:20;9.30;;;4.80;;
13493;SDS011;6819;50.886;4.332;2023-03-01T02:34:51;7.30;;;4.65;;
13493;SDS011;6819;50.886;4.332;2023-03-01T02:37:17;9.60;;;4.95;;
13493;SDS011;6819;50.886;4.332;2023-03-01T02:39:51;6.60;;;4.53;;
13493;SDS011;6819;50.886;4.332;2023-03-01T02:42:21;9.80;;;5.32;;
13493;SDS011;6819;50.886;4.332;2023-03-01T02:44:49;8.13;;;4.72;;
13493;SDS011;6819;50.886;4.332;2023-03-01T02:47:15;10.48;;;5.00;;
13493;SDS011;6819;50.886;4.332;2023-03-01T02:49:41;15.80;;;5.88;;
13493;SDS011;6819;50.886;4.332;2023-03-01T02:52:23;9.45;;;5.28;;
13493;SDS011;6819;50.886;4.332;2023-03-01T02:57:26;8.82;;;5.28;;
13493;SDS011;6819;50.886;4.332;2023-03-01T02:59:53;9.32;;;4.82;;
13493;SDS011;6819;50.886;4.332;2023-03-01T03:02:21;9.93;;;5.25;;
13493;SDS011;6819;50.886;4.332;2023-03-01T03:05:01;10.95;;;5.78;;
13493;SDS011;6819;50.886;4.332;2023-03-01T03:07:27;10.05;;;4.97;;
13493;SDS011;6819;50.886;4.332;2023-03-01T03:09:53;9.00;;;5.80;;
13493;SDS011;6819;50.886;4.332;2023-03-01T03:12:19;9.30;;;5.55;;
13493;SDS011;6819;50.886;4.332;2023-03-01T03:14:45;10.40;;;5.10;;
13493;SDS011;6819;50.886;4.332;2023-03-01T03:17:11;11.50;;;5.75;;
13493;SDS011;6819;50.886;4.332;2023-03-01T03:19:37;9.88;;;5.60;;
13493;SDS011;6819;50.886;4.332;2023-03-01T03:22:03;7.38;;;5.30;;
13493;SDS011;6819;50.886;4.332;2023-03-01T03:24:29;9.43;;;5.75;;
13493;SDS011;6819;50.886;4.332;2023-03-01T03:27:03;10.68;;;5.25;;
13493;SDS011;6819;50.886;4.332;2023-03-01T03:29:29;11.00;;;5.68;;
13493;SDS011;6819;50.886;4.332;2023-03-01T03:31:55;7.82;;;5.38;;
13493;SDS011;6819;50.886;4.332;2023-03-01T03:34:21;8.00;;;5.20;;
13493;SDS011;6819;50.886;4.332;2023-03-01T03:36:47;9.95;;;5.45;;
13493;SDS011;6819;50.886;4.332;2023-03-01T03:39:13;7.35;;;4.78;;
13493;SDS011;6819;50.886;4.332;2023-03-01T03:41:39;11.55;;;5.57;;
13493;SDS011;6819;50.886;4.332;2023-03-01T03:44:05;9.88;;;5.57;;
13493;SDS011;6819;50.886;4.332;2023-03-01T03:46:31;9.32;;;5.43;;
13493;SDS011;6819;50.886;4.332;2023-03-01T03:48:57;12.35;;;5.93;;
13493;SDS011;6819;50.886;4.332;2023-03-01T03:51:23;7.97;;;5.65;;
13493;SDS011;6819;50.886;4.332;2023-03-01T03:53:49;9.55;;;5.90;;
13493;SDS011;6819;50.886;4.332;2023-03-01T03:56:15;16.77;;;6.22;;
13493;SDS011;6819;50.886;4.332;2023-03-01T03:58:41;15.18;;;6.45;;
13493;SDS011;6819;50.886;4.332;2023-03-01T04:01:07;9.40;;;5.78;;
13493;SDS011;6819;50.886;4.332;2023-03-01T04:03:34;10.80;;;5.95;;
13493;SDS011;6819;50.886;4.332;2023-03-01T04:06:00;9.85;;;6.32;;
13493;SDS011;6819;50.886;4.332;2023-03-01T04:08:27;14.02;;;5.60;;
13493;SDS011;6819;50.886;4.332;2023-03-01T04:10:57;9.80;;;5.75;;
13493;SDS011;6819;50.886;4.332;2023-03-01T04:13:24;13.43;;;6.25;;
13493;SDS011;6819;50.886;4.332;2023-03-01T04:15:53;11.00;;;5.60;;
13493;SDS011;6819;50.886;4.332;2023-03-01T04:18:20;12.63;;;6.05;;
13493;SDS011;6819;50.886;4.332;2023-03-01T04:20:47;10.15;;;5.55;;
13493;SDS011;6819;50.886;4.332;2023-03-01T04:23:17;10.52;;;5.75;;
13493;SDS011;6819;50.886;4.332;2023-03-01T04:25:47;9.77;;;5.75;;
13493;SDS011;6819;50.886;4.332;2023-03-01T04:28:18;9.15;;;5.97;;
13493;SDS011;6819;50.886;4.332;2023-03-01T04:30:44;13.80;;;5.82;;
13493;SDS011;6819;50.886;4.332;2023-03-01T04:33:11;12.90;;;6.13;;
13493;SDS011;6819;50.886;4.332;2023-03-01T04:35:37;9.35;;;5.78;;
13493;SDS011;6819;50.886;4.332;2023-03-01T04:38:04;9.00;;;5.55;;
13493;SDS011;6819;50.886;4.332;2023-03-01T04:40:31;9.70;;;5.00;;
13493;SDS011;6819;50.886;4.332;2023-03-01T04:42:57;10.32;;;5.68;;
13493;SDS011;6819;50.886;4.332;2023-03-01T04:45:23;13.70;;;6.00;;
13493;SDS011;6819;50.886;4.332;2023-03-01T04:47:49;12.73;;;5.60;;
13493;SDS011;6819;50.886;4.332;2023-03-01T04:50:17;7.88;;;5.13;;
13493;SDS011;6819;50.886;4.332;2023-03-01T04:52:45;10.98;;;5.90;;
13493;SDS011;6819;50.886;4.332;2023-03-01T04:55:12;12.32;;;6.28;;
13493;SDS011;6819;50.886;4.332;2023-03-01T04:57:38;9.32;;;5.05;;
13493;SDS011;6819;50.886;4.332;2023-03-01T05:00:05;10.80;;;5.72;;
13493;SDS011;6819;50.886;4.332;2023-03-01T05:02:48;9.20;;;6.00;;
13493;SDS011;6819;50.886;4.332;2023-03-01T05:05:18;10.35;;;5.65;;
13493;SDS011;6819;50.886;4.332;2023-03-01T05:07:44;8.95;;;5.32;;
13493;SDS011;6819;50.886;4.332;2023-03-01T05:10:10;9.48;;;5.18;;
13493;SDS011;6819;50.886;4.332;2023-03-01T05:12:36;8.98;;;5.55;;
13493;SDS011;6819;50.886;4.332;2023-03-01T05:15:03;9.05;;;5.00;;
13493;SDS011;6819;50.886;4.332;2023-03-01T05:17:32;10.43;;;6.35;;
13493;SDS011;6819;50.886;4.332;2023-03-01T05:19:58;15.38;;;5.88;;
13493;SDS011;6819;50.886;4.332;2023-03-01T05:22:25;8.32;;;5.32;;
13493;SDS011;6819;50.886;4.332;2023-03-01T05:24:51;7.57;;;5.13;;
13493;SDS011;6819;50.886;4.332;2023-03-01T05:27:19;10.20;;;5.43;;
13493;SDS011;6819;50.886;4.332;2023-03-01T05:29:47;9.95;;;5.65;;
13493;SDS011;6819;50.886;4.332;2023-03-01T05:32:13;9.98;;;4.70;;
13493;SDS011;6819;50.886;4.332;2023-03-01T05:34:40;11.13;;;5.32;;
13493;SDS011;6819;50.886;4.332;2023-03-01T05:37:07;11.02;;;5.32;;
13493;SDS011;6819;50.886;4.332;2023-03-01T05:39:34;8.45;;;5.03;;
13493;SDS011;6819;50.886;4.332;2023-03-01T05:42:00;11.07;;;5.20;;
13493;SDS011;6819;50.886;4.332;2023-03-01T05:44:27;8.40;;;4.78;;
13493;SDS011;6819;50.886;4.332;2023-03-01T05:46:54;8.93;;;4.97;;
13493;SDS011;6819;50.886;4.332;2023-03-01T05:49:20;11.70;;;5.53;;
13493;SDS011;6819;50.886;4.332;2023-03-01T05:51:49;8.98;;;5.55;;
13493;SDS011;6819;50.886;4.332;2023-03-01T05:54:16;10.00;;;5.38;;
13493;SDS011;6819;50.886;4.332;2023-03-01T05:56:42;9.90;;;5.03;;
13493;SDS011;6819;50.886;4.332;2023-03-01T05:59:08;12.80;;;5.82;;
13493;SDS011;6819;50.886;4.332;2023-03-01T06:01:35;9.75;;;5.13;;
13493;SDS011;6819;50.886;4.332;2023-03-01T06:04:01;12.27;;;5.35;;
13493;SDS011;6819;50.886;4.332;2023-03-01T06:06:27;7.93;;;4.93;;
13493;SDS011;6819;50.886;4.332;2023-03-01T06:08:53;14.65;;;6.30;;
13493;SDS011;6819;50.886;4.332;2023-03-01T06:11:20;8.27;;;5.38;;
13493;SDS011;6819;50.886;4.332;2023-03-01T06:13:46;11.30;;;5.10;;
13493;SDS011;6819;50.886;4.332;2023-03-01T06:16:13;12.35;;;5.15;;
13493;SDS011;6819;50.886;4.332;2023-03-01T06:18:39;9.93;;;5.60;;
13493;SDS011;6819;50.886;4.332;2023-03-01T06:21:06;10.25;;;5.28;;
13493;SDS011;6819;50.886;4.332;2023-03-01T06:23:32;9.55;;;5.18;;
13493;SDS011;6819;50.886;4.332;2023-03-01T06:25:58;10.25;;;5.10;;
13493;SDS011;6819;50.886;4.332;2023-03-01T06:28:25;13.35;;;5.25;;
13493;SDS011;6819;50.886;4.332;2023-03-01T06:30:51;9.02;;;5.35;;
13493;SDS011;6819;50.886;4.332;2023-03-01T06:33:17;9.57;;;4.95;;
13493;SDS011;6819;50.886;4.332;2023-03-01T06:35:45;7.93;;;5.32;;
13493;SDS011;6819;50.886;4.332;2023-03-01T06:38:11;10.23;;;5.07;;
13493;SDS011;6819;50.886;4.332;2023-03-01T06:40:39;15.15;;;5.75;;
13493;SDS011;6819;50.886;4.332;2023-03-01T06:43:06;13.88;;;5.20;;
13493;SDS011;6819;50.886;4.332;2023-03-01T06:45:32;11.60;;;5.10;;
13493;SDS011;6819;50.886;4.332;2023-03-01T06:48:04;17.33;;;6.63;;
13493;SDS011;6819;50.886;4.332;2023-03-01T06:50:31;10.77;;;5.85;;
13493;SDS011;6819;50.886;4.332;2023-03-01T06:52:57;18.80;;;6.55;;
13493;SDS011;6819;50.886;4.332;2023-03-01T06:55:23;20.10;;;8.55;;
13493;SDS011;6819;50.886;4.332;2023-03-01T06:57:56;12.63;;;6.18;;
13493;SDS011;6819;50.886;4.332;2023-03-01T07:00:22;10.55;;;5.60;;
13493;SDS011;6819;50.886;4.332;2023-03-01T07:02:49;17.35;;;5.13;;
13493;SDS011;6819;50.886;4.332;2023-03-01T07:05:15;12.50;;;6.25;;
13493;SDS011;6819;50.886;4.332;2023-03-01T07:07:41;10.82;;;5.50;;
13493;SDS011;6819;50.886;4.332;2023-03-01T07:10:07;10.70;;;5.38;;
13493;SDS011;6819;50.886;4.332;2023-03-01T07:12:33;12.38;;;6.30;;
13493;SDS011;6819;50.886;4.332;2023-03-01T07:14:59;13.45;;;5.32;;
13493;SDS011;6819;50.886;4.332;2023-03-01T07:17:25;11.68;;;5.38;;
13493;SDS011;6819;50.886;4.332;2023-03-01T07:19:51;16.90;;;6.70;;
13493;SDS011;6819;50.886;4.332;2023-03-01T07:22:17;13.88;;;6.05;;
13493;SDS011;6819;50.886;4.332;2023-03-01T07:24:43;13.38;;;5.72;;
13493;SDS011;6819;50.886;4.332;2023-03-01T07:27:09;17.05;;;6.20;;
13493;SDS011;6819;50.886;4.332;2023-03-01T07:29:36;9.93;;;5.95;;
13493;SDS011;6819;50.886;4.332;2023-03-01T07:32:02;13.13;;;6.25;;
13493;SDS011;6819;50.886;4.332;2023-03-01T07:34:28;12.07;;;6.07;;
13493;SDS011;6819;50.886;4.332;2023-03-01T07:36:54;10.70;;;5.45;;
13493;SDS011;6819;50.886;4.332;2023-03-01T07:39:20;10.40;;;5.63;;
13493;SDS011;6819;50.886;4.332;2023-03-01T07:41:48;11.30;;;5.78;;
13493;SDS011;6819;50.886;4.332;2023-03-01T07:44:14;10.07;;;5.75;;
13493;SDS011;6819;50.886;4.332;2023-03-01T07:46:41;12.02;;;5.05;;
13493;SDS011;6819;50.886;4.332;2023-03-01T07:49:07;8.73;;;5.45;;
13493;SDS011;6819;50.886;4.332;2023-03-01T07:51:34;9.98;;;5.43;;
13493;SDS011;6819;50.886;4.332;2023-03-01T07:54:00;15.15;;;6.30;;
13493;SDS011;6819;50.886;4.332;2023-03-01T07:56:26;12.35;;;6.78;;
13493;SDS011;6819;50.886;4.332;2023-03-01T07:58:52;24.55;;;5.50;;
13493;SDS011;6819;50.886;4.332;2023-03-01T08:01:19;9.65;;;6.10;;
13493;SDS011;6819;50.886;4.332;2023-03-01T08:03:46;12.30;;;5.65;;
13493;SDS011;6819;50.886;4.332;2023-03-01T08:06:12;11.18;;;5.95;;
13493;SDS011;6819;50.886;4.332;2023-03-01T08:08:38;12.55;;;6.60;;
13493;SDS011;6819;50.886;4.332;2023-03-01T08:11:05;14.45;;;6.55;;
13493;SDS011;6819;50.886;4.332;2023-03-01T08:13:31;13.13;;;6.90;;
13493;SDS011;6819;50.886;4.332;2023-03-01T08:16:01;11.75;;;5.65;;
13493;SDS011;6819;50.886;4.332;2023-03-01T08:18:27;14.07;;;6.40;;
13493;SDS011;6819;50.886;4.332;2023-03-01T08:20:53;13.93;;;6.57;;
13493;SDS011;6819;50.886;4.332;2023-03-01T08:23:19;12.23;;;6.53;;
13493;SDS011;6819;50.886;4.332;2023-03-01T08:25:45;15.23;;;6.32;;
13493;SDS011;6819;50.886;4.332;2023-03-01T08:28:11;11.52;;;5.97;;
13493;SDS011;6819;50.886;4.332;2023-03-01T08:30:37;14.43;;;6.28;;
13493;SDS011;6819;50.886;4.332;2023-03-01T08:33:03;10.82;;;5.88;;
13493;SDS011;6819;50.886;4.332;2023-03-01T08:35:29;12.38;;;6.43;;
13493;SDS011;6819;50.886;4.332;2023-03-01T08:37:55;9.70;;;6.13;;
13493;SDS011;6819;50.886;4.332;2023-03-01T08:40:21;14.15;;;6.72;;
13493;SDS011;6819;50.886;4.332;2023-03-01T08:42:47;10.70;;;6.47;;
13493;SDS011;6819;50.886;4.332;2023-03-01T08:45:13;12.45;;;6.85;;
13493;SDS011;6819;50.886;4.332;2023-03-01T08:47:43;13.73;;;6.45;;
13493;SDS011;6819;50.886;4.332;2023-03-01T08:50:10;10.10;;;6.35;;
13493;SDS011;6819;50.886;4.332;2023-03-01T08:52:36;18.38;;;6.78;;
13493;SDS011;6819;50.886;4.332;2023-03-01T08:55:02;14.77;;;5.88;;
13493;SDS011;6819;50.886;4.332;2023-03-01T08:57:28;15.07;;;6.28;;
13493;SDS011;6819;50.886;4.332;2023-03-01T08:59:54;18.40;;;8.95;;
13493;SDS011;6819;50.886;4.332;2023-03-01T09:02:21;15.80;;;7.10;;
13493;SDS011;6819;50.886;4.332;2023-03-01T09:04:47;19.75;;;6.68;;
13493;SDS011;6819;50.886;4.332;2023-03-01T09:07:13;16.52;;;6.43;;
13493;SDS011;6819;50.886;4.332;2023-03-01T09:09:39;13.15;;;6.53;;
13493;SDS011;6819;50.886;4.332;2023-03-01T09:12:05;13.77;;;6.78;;
13493;SDS011;6819;50.886;4.332;2023-03-01T09:14:31;12.15;;;6.63;;
13493;SDS011;6819;50.886;4.332;2023-03-01T09:16:57;11.50;;;5.97;;
13493;SDS011;6819;50.886;4.332;2023-03-01T09:19:23;13.32;;;6.45;;
13493;SDS011;6819;50.886;4.332;2023-03-01T09:21:49;18.50;;;6.80;;
13493;SDS011;6819;50.886;4.332;2023-03-01T09:24:20;11.30;;;6.68;;
13493;SDS011;6819;50.886;4.332;2023-03-01T09:26:46;13.15;;;7.72;;
13493;SDS011;6819;50.886;4.332;2023-03-01T09:29:13;16.05;;;6.15;;
13493;SDS011;6819;50.886;4.332;2023-03-01T09:31:39;13.60;;;6.80;;
13493;SDS011;6819;50.886;4.332;2023-03-01T09:34:05;17.48;;;6.68;;
13493;SDS011;6819;50.886;4.332;2023-03-01T09:36:31;12.93;;;6.82;;
13493;SDS011;6819;50.886;4.332;2023-03-01T09:38:58;14.07;;;7.18;;
13493;SDS011;6819;50.886;4.332;2023-03-01T09:44:18;15.20;;;7.37;;
13493;SDS011;6819;50.886;4.332;2023-03-01T09:46:47;11.30;;;6.63;;
13493;SDS011;6819;50.886;4.332;2023-03-01T09:49:21;11.38;;;6.22;;
13493;SDS011;6819;50.886;4.332;2023-03-01T09:51:54;14.52;;;6.22;;
13493;SDS011;6819;50.886;4.332;2023-03-01T09:54:20;12.60;;;7.10;;
13493;SDS011;6819;50.886;4.332;2023-03-01T09:56:59;14.35;;;7.47;;
13493;SDS011;6819;50.886;4.332;2023-03-01T09:59:33;10.88;;;6.40;;
13493;SDS011;6819;50.886;4.332;2023-03-01T10:02:26;10.05;;;6.18;;
13493;SDS011;6819;50.886;4.332;2023-03-01T10:04:50;11.43;;;6.47;;
13493;SDS011;6819;50.886;4.332;2023-03-01T10:09:43;11.70;;;7.07;;
13493;SDS011;6819;50.886;4.332;2023-03-01T10:12:18;11.35;;;6.35;;
13493;SDS011;6819;50.886;4.332;2023-03-01T10:17:43;16.23;;;6.03;;
13493;SDS011;6819;50.886;4.332;2023-03-01T10:20:21;15.18;;;7.22;;
13493;SDS011;6819;50.886;4.332;2023-03-01T10:22:48;12.50;;;7.35;;
13493;SDS011;6819;50.886;4.332;2023-03-01T10:27:59;13.45;;;6.57;;
13493;SDS011;6819;50.886;4.332;2023-03-01T10:30:37;13.32;;;6.93;;
13493;SDS011;6819;50.886;4.332;2023-03-01T10:33:08;15.60;;;6.97;;
13493;SDS011;6819;50.886;4.332;2023-03-01T10:35:39;14.52;;;7.05;;
13493;SDS011;6819;50.886;4.332;2023-03-01T10:38:10;9.60;;;6.30;;
13493;SDS011;6819;50.886;4.332;2023-03-01T10:40:37;12.13;;;6.20;;
13493;SDS011;6819;50.886;4.332;2023-03-01T10:43:14;12.43;;;6.65;;
13493;SDS011;6819;50.886;4.332;2023-03-01T10:45:41;13.07;;;6.32;;
13493;SDS011;6819;50.886;4.332;2023-03-01T10:50:44;13.25;;;7.20;;
13493;SDS011;6819;50.886;4.332;2023-03-01T10:53:20;12.02;;;6.40;;
13493;SDS011;6819;50.886;4.332;2023-03-01T10:55:56;11.77;;;6.22;;
13493;SDS011;6819;50.886;4.332;2023-03-01T10:58:22;10.38;;;7.40;;
13493;SDS011;6819;50.886;4.332;2023-03-01T11:01:01;10.82;;;7.05;;
13493;SDS011;6819;50.886;4.332;2023-03-01T11:03:28;11.27;;;6.35;;
13493;SDS011;6819;50.886;4.332;2023-03-01T11:06:28;11.75;;;6.63;;
13493;SDS011;6819;50.886;4.332;2023-03-01T11:08:48;11.77;;;6.13;;
13493;SDS011;6819;50.886;4.332;2023-03-01T11:11:20;11.65;;;6.53;;
13493;SDS011;6819;50.886;4.332;2023-03-01T11:16:26;12.63;;;6.75;;
13493;SDS011;6819;50.886;4.332;2023-03-01T11:18:56;11.02;;;6.40;;
13493;SDS011;6819;50.886;4.332;2023-03-01T11:21:23;10.02;;;6.63;;
13493;SDS011;6819;50.886;4.332;2023-03-01T11:23:49;9.88;;;6.13;;
13493;SDS011;6819;50.886;4.332;2023-03-01T11:26:16;11.35;;;6.55;;
13493;SDS011;6819;50.886;4.332;2023-03-01T11:28:43;11.40;;;7.28;;
13493;SDS011;6819;50.886;4.332;2023-03-01T11:31:13;12.38;;;6.88;;
13493;SDS011;6819;50.886;4.332;2023-03-01T11:33:53;13.63;;;7.38;;
13493;SDS011;6819;50.886;4.332;2023-03-01T11:38:53;13.23;;;6.75;;
13493;SDS011;6819;50.886;4.332;2023-03-01T11:41:21;13.05;;;6.32;;
13493;SDS011;6819;50.886;4.332;2023-03-01T11:56:40;14.50;;;6.72;;
13493;SDS011;6819;50.886;4.332;2023-03-01T12:01:48;15.20;;;6.13;;
13493;SDS011;6819;50.886;4.332;2023-03-01T12:09:31;12.10;;;7.15;;
13493;SDS011;6819;50.886;4.332;2023-03-01T12:14:44;15.45;;;6.55;;
13493;SDS011;6819;50.886;4.332;2023-03-01T12:30:24;11.52;;;6.35;;
13493;SDS011;6819;50.886;4.332;2023-03-01T12:48:47;11.15;;;6.85;;
13493;SDS011;6819;50.886;4.332;2023-03-01T12:51:16;9.02;;;5.60;;
13493;SDS011;6819;50.886;4.332;2023-03-01T12:53:46;9.80;;;6.50;;
13493;SDS011;6819;50.886;4.332;2023-03-01T12:56:20;9.20;;;5.72;;
13493;SDS011;6819;50.886;4.332;2023-03-01T13:04:08;9.45;;;5.75;;
13493;SDS011;6819;50.886;4.332;2023-03-01T13:06:50;11.32;;;5.95;;
13493;SDS011;6819;50.886;4.332;2023-03-01T13:12:41;9.32;;;6.45;;
13493;SDS011;6819;50.886;4.332;2023-03-01T13:14:51;10.25;;;6.25;;
13493;SDS011;6819;50.886;4.332;2023-03-01T13:17:29;12.18;;;6.95;;
13493;SDS011;6819;50.886;4.332;2023-03-01T13:19:57;14.68;;;6.22;;
13493;SDS011;6819;50.886;4.332;2023-03-01T13:22:28;13.57;;;6.82;;
13493;SDS011;6819;50.886;4.332;2023-03-01T13:25:12;11.13;;;6.53;;
13493;SDS011;6819;50.886;4.332;2023-03-01T13:27:39;13.23;;;6.63;;
13493;SDS011;6819;50.886;4.332;2023-03-01T13:30:12;11.02;;;6.45;;
13493;SDS011;6819;50.886;4.332;2023-03-01T13:32:51;10.60;;;6.50;;
13493;SDS011;6819;50.886;4.332;2023-03-01T13:37:45;11.10;;;6.57;;
13493;SDS011;6819;50.886;4.332;2023-03-01T13:45:18;10.85;;;6.88;;
13493;SDS011;6819;50.886;4.332;2023-03-01T13:47:45;10.35;;;6.15;;
13493;SDS011;6819;50.886;4.332;2023-03-01T13:50:24;14.27;;;6.57;;
13493;SDS011;6819;50.886;4.332;2023-03-01T13:52:52;9.75;;;6.07;;
13493;SDS011;6819;50.886;4.332;2023-03-01T13:55:21;10.90;;;6.28;;
13493;SDS011;6819;50.886;4.332;2023-03-01T13:57:49;10.13;;;6.63;;
13493;SDS011;6819;50.886;4.332;2023-03-01T14:00:38;11.18;;;6.55;;
13493;SDS011;6819;50.886;4.332;2023-03-01T14:03:08;11.07;;;6.95;;
13493;SDS011;6819;50.886;4.332;2023-03-01T14:05:35;10.13;;;6.40;;
13493;SDS011;6819;50.886;4.332;2023-03-01T14:08:04;10.40;;;6.03;;
13493;SDS011;6819;50.886;4.332;2023-03-01T14:10:35;11.75;;;6.22;;
13493;SDS011;6819;50.886;4.332;2023-03-01T14:15:35;9.25;;;6.28;;
13493;SDS011;6819;50.886;4.332;2023-03-01T14:18:04;8.52;;;6.57;;
13493;SDS011;6819;50.886;4.332;2023-03-01T14:20:37;11.90;;;6.40;;
13493;SDS011;6819;50.886;4.332;2023-03-01T14:23:09;11.52;;;6.45;;
13493;SDS011;6819;50.886;4.332;2023-03-01T14:25:36;10.23;;;6.63;;
13493;SDS011;6819;50.886;4.332;2023-03-01T14:28:25;7.97;;;6.30;;
13493;SDS011;6819;50.886;4.332;2023-03-01T14:30:52;10.02;;;6.35;;
13493;SDS011;6819;50.886;4.332;2023-03-01T14:38:27;8.80;;;6.30;;
13493;SDS011;6819;50.886;4.332;2023-03-01T14:40:56;10.25;;;6.60;;
13493;SDS011;6819;50.886;4.332;2023-03-01T14:43:22;10.13;;;6.30;;
13493;SDS011;6819;50.886;4.332;2023-03-01T14:45:51;9.23;;;6.72;;
13493;SDS011;6819;50.886;4.332;2023-03-01T14:48:17;8.43;;;6.32;;
13493;SDS011;6819;50.886;4.332;2023-03-01T14:50:44;12.52;;;7.22;;
13493;SDS011;6819;50.886;4.332;2023-03-01T14:55:44;9.23;;;6.05;;
13493;SDS011;6819;50.886;4.332;2023-03-01T14:58:13;10.27;;;6.60;;
13493;SDS011;6819;50.886;4.332;2023-03-01T15:00:39;10.77;;;7.05;;
13493;SDS011;6819;50.886;4.332;2023-03-01T15:03:07;9.13;;;6.70;;
13493;SDS011;6819;50.886;4.332;2023-03-01T15:05:38;10.35;;;7.45;;
13493;SDS011;6819;50.886;4.332;2023-03-01T15:08:05;11.30;;;6.80;;
13493;SDS011;6819;50.886;4.332;2023-03-01T15:10:33;10.90;;;6.85;;
13493;SDS011;6819;50.886;4.332;2023-03-01T15:13:12;11.55;;;6.10;;
13493;SDS011;6819;50.886;4.332;2023-03-01T15:15:42;11.05;;;6.82;;
13493;SDS011;6819;50.886;4.332;2023-03-01T15:18:16;8.73;;;6.45;;
13493;SDS011;6819;50.886;4.332;2023-03-01T15:20:42;11.77;;;7.20;;
13493;SDS011;6819;50.886;4.332;2023-03-01T15:23:18;14.43;;;7.60;;
13493;SDS011;6819;50.886;4.332;2023-03-01T15:25:44;10.07;;;6.90;;
13493;SDS011;6819;50.886;4.332;2023-03-01T15:28:12;9.85;;;6.22;;
13493;SDS011;6819;50.886;4.332;2023-03-01T15:30:43;10.80;;;6.65;;
13493;SDS011;6819;50.886;4.332;2023-03-01T15:33:16;9.70;;;6.68;;
13493;SDS011;6819;50.886;4.332;2023-03-01T15:35:47;9.52;;;6.65;;
13493;SDS011;6819;50.886;4.332;2023-03-01T15:38:30;15.75;;;7.13;;
13493;SDS011;6819;50.886;4.332;2023-03-01T15:40:57;11.38;;;6.68;;
13493;SDS011;6819;50.886;4.332;2023-03-01T15:43:37;11.10;;;7.57;;
13493;SDS011;6819;50.886;4.332;2023-03-01T15:46:04;9.68;;;6.55;;
13493;SDS011;6819;50.886;4.332;2023-03-01T15:48:30;13.68;;;6.55;;
13493;SDS011;6819;50.886;4.332;2023-03-01T15:50:57;15.05;;;7.72;;
13493;SDS011;6819;50.886;4.332;2023-03-01T15:53:23;10.88;;;7.43;;
13493;SDS011;6819;50.886;4.332;2023-03-01T15:55:49;13.23;;;6.72;;
13493;SDS011;6819;50.886;4.332;2023-03-01T15:58:17;11.50;;;6.93;;
13493;SDS011;6819;50.886;4.332;2023-03-01T16:00:44;12.40;;;6.97;;
13493;SDS011;6819;50.886;4.332;2023-03-01T16:03:10;10.43;;;7.25;;
13493;SDS011;6819;50.886;4.332;2023-03-01T16:05:37;11.23;;;6.20;;
13493;SDS011;6819;50.886;4.332;2023-03-01T16:08:04;9.93;;;7.15;;
13493;SDS011;6819;50.886;4.332;2023-03-01T16:10:34;12.43;;;8.13;;
13493;SDS011;6819;50.886;4.332;2023-03-01T16:13:00;10.40;;;6.93;;
13493;SDS011;6819;50.886;4.332;2023-03-01T16:15:30;12.52;;;7.80;;
13493;SDS011;6819;50.886;4.332;2023-03-01T16:17:56;12.30;;;8.55;;
13493;SDS011;6819;50.886;4.332;2023-03-01T16:20:26;13.32;;;7.57;;
13493;SDS011;6819;50.886;4.332;2023-03-01T16:22:53;11.07;;;6.70;;
13493;SDS011;6819;50.886;4.332;2023-03-01T16:25:19;13.35;;;9.00;;
13493;SDS011;6819;50.886;4.332;2023-03-01T16:27:48;14.15;;;6.55;;
13493;SDS011;6819;50.886;4.332;2023-03-01T16:30:15;9.65;;;6.72;;
13493;SDS011;6819;50.886;4.332;2023-03-01T16:32:42;10.73;;;5.90;;
13493;SDS011;6819;50.886;4.332;2023-03-01T16:35:09;8.90;;;6.00;;
13493;SDS011;6819;50.886;4.332;2023-03-01T16:37:35;9.88;;;6.50;;
13493;SDS011;6819;50.886;4.332;2023-03-01T16:40:02;10.93;;;6.18;;
13493;SDS011;6819;50.886;4.332;2023-03-01T16:42:32;10.48;;;6.28;;
13493;SDS011;6819;50.886;4.332;2023-03-01T16:44:59;11.45;;;6.65;;